Winter Haven, FL

2:52 PM EDT on May 27, 2015 (GMT -0400)
Winter Haven's-Gilbert | | Change Station
CLOSE
Current Station
Airport
Location: Winter Haven,
Elevation: 144 ft
Nearby Weather Stations

Elev 144 ft 28.06 °N, 81.75 °W | Updated 59 minutes ago

Mostly Cloudy
Mostly Cloudy
87 °F
Feels Like 88 °F
N
13
Wind Variable Wind from ENE
Gusts 18 mph

Today
High -- | Low -- °F
--% Chance of Precip.
Yesterday
High -- | Low -- °F
Precip. -- in
6:32 AM 8:16 PM
Waxing Gibbous, 69% visible
Pressure 30.16 in
Visibility 10.0 miles
Clouds Scattered Clouds 4900 ft
Mostly Cloudy 6000 ft
Heat Index 88 °F
Dew Point 64 °F
Humidity 46%
Rainfall 0.00 in
Snow Depth Not available.
UV 8 out of 12
Pollen 5.30 out of 12
Air Quality Not available.
Flu Activity Sporadic
METAR KGIF 271753Z AUTO 06011G16KT 10SM SCT049 BKN060 31/18 A3017 RMK AO2 SLP213 T03060178 10328 20244 58016

More Conditions Fewer Conditions

Pressure 30.16 in
Visibility 10.0 miles
Clouds Scattered Clouds 4900 ft
Mostly Cloudy 6000 ft
Heat Index 88 °F
Dew Point 64 °F
Humidity 46%
Rainfall 0.00 in
Snow Depth Not available.
UV 8 out of 12
Pollen 5.30 out of 12
Air Quality Not available.
Flu Activity Sporadic
METAR KGIF 271753Z AUTO 06011G16KT 10SM SCT049 BKN060 31/18 A3017 RMK AO2 SLP213 T03060178 10328 20244 58016

More Conditions Fewer Conditions

10-Day Weather Forecast

Almanac

Astronomy

May. 27, 2015 Rise Set
Actual Time
Civil Twilight
Nautical Twilight
Astronomical Twilight
Moon
Length of Visible Light
Length of Day
Tomorrow will be .
, % of the Moon is Illuminated

Today's Extremes

State Highs State Lows

Community

WunderPhotos

Upload Photos

1,824,757 photos uploaded!

WunderBlogs® & News

Nearby

Air Quality

  Air Quality AQ Index Pollutant
Not available.

Snow Depth

Station Depth Elevation

Earthquake Activity

City Distance Mag. Time & Date
Minimum magnitude displayed is 2.5.

Coastal Water Temperatures

Place Temperature

Stations

Nearby Weather Stations

Station Location Temp. Windchill Dew Point Humidity Wind Precip. Elev Updated Type